ZKCBM NZAR-NZAR

Flight info

Callsign ZKCBM
Flight time 1h 19m
Altitude 2000
Route THAMES
Aircraft C172/L-V/N

Departure

Time 2026-04-27 02:56
Airport Ardmore Airport (NZAR)

Arrival

Time 2026-04-27 04:15
Airport Ardmore Airport (NZAR)
Time Latitude Longitude Altitude Speed Heading
2026-04-27 02:38 -37.03611 174.97029 110 ft 0 kts 226°
2026-04-27 02:42 -37.03621 174.97008 110 ft 2 kts 280°
2026-04-27 02:43 -37.03609 174.96991 110 ft 2 kts 318°
2026-04-27 02:43 -37.03591 174.96970 110 ft 5 kts 314°
2026-04-27 02:43 -37.03556 174.96948 110 ft 5 kts 36°
2026-04-27 02:43 -37.03532 174.96982 110 ft 6 kts 48°
2026-04-27 02:44 -37.03494 174.97029 110 ft 8 kts 46°
2026-04-27 02:44 -37.03450 174.97086 110 ft 9 kts 45°
2026-04-27 02:44 -37.03405 174.97144 110 ft 9 kts 45°
2026-04-27 02:44 -37.03365 174.97192 110 ft 6 kts 44°
2026-04-27 02:45 -37.03339 174.97227 110 ft 5 kts 45°
2026-04-27 02:45 -37.03307 174.97269 110 ft 8 kts 44°
2026-04-27 02:45 -37.03258 174.97330 110 ft 10 kts 46°
2026-04-27 02:45 -37.03204 174.97400 110 ft 11 kts 44°
2026-04-27 02:46 -37.03153 174.97463 110 ft 7 kts 47°
2026-04-27 02:46 -37.03122 174.97504 110 ft 7 kts 46°
2026-04-27 02:46 -37.03082 174.97556 110 ft 9 kts 46°
2026-04-27 02:46 -37.03032 174.97618 110 ft 10 kts 45°
2026-04-27 02:47 -37.02996 174.97664 110 ft 5 kts 44°
2026-04-27 02:47 -37.02964 174.97704 110 ft 7 kts 44°
2026-04-27 02:47 -37.02926 174.97751 110 ft 8 kts 48°
2026-04-27 02:47 -37.02884 174.97804 110 ft 8 kts 45°
2026-04-27 02:48 -37.02843 174.97856 110 ft 8 kts 44°
2026-04-27 02:48 -37.02819 174.97908 110 ft 5 kts 59°
2026-04-27 02:48 -37.02805 174.97926 110 ft 0 kts 174°
2026-04-27 02:48 -37.02806 174.97925 110 ft 0 kts 230°
2026-04-27 02:51 -37.02810 174.97922 110 ft 3 kts 197°
2026-04-27 02:51 -37.02820 174.97948 110 ft 3 kts 90°
2026-04-27 02:51 -37.02820 174.97981 110 ft 4 kts 88°
2026-04-27 02:51 -37.02820 174.98024 110 ft 5 kts 91°
2026-04-27 02:52 -37.02820 174.98076 110 ft 6 kts 89°
2026-04-27 02:52 -37.02806 174.98131 110 ft 6 kts 18°
2026-04-27 02:52 -37.02767 174.98117 110 ft 5 kts 335°
2026-04-27 02:52 -37.02732 174.98093 110 ft 6 kts 330°
2026-04-27 02:53 -37.02693 174.98067 110 ft 3 kts 347°
2026-04-27 02:53 -37.02687 174.98067 110 ft 0 kts 355°
2026-04-27 02:54 -37.02685 174.98067 110 ft 2 kts 350°
2026-04-27 02:54 -37.02667 174.98050 110 ft 6 kts 321°
2026-04-27 02:54 -37.02645 174.98007 110 ft 3 kts 233°
2026-04-27 02:55 -37.02678 174.97966 110 ft 27 kts 224°
2026-04-27 02:55 -37.02932 174.97643 171 ft 66 kts 227°
2026-04-27 02:55 -37.03273 174.97197 362 ft 73 kts 226°
2026-04-27 02:55 -37.03636 174.96733 576 ft 75 kts 227°
2026-04-27 02:56 -37.04031 174.96277 775 ft 78 kts 218°
2026-04-27 02:56 -37.04457 174.95863 1004 ft 77 kts 213°
2026-04-27 02:56 -37.04918 174.95546 1227 ft 76 kts 208°
2026-04-27 02:56 -37.05405 174.95242 1396 ft 82 kts 203°
2026-04-27 02:57 -37.05936 174.94911 1524 ft 88 kts 210°
2026-04-27 02:57 -37.06441 174.94475 1737 ft 84 kts 209°
2026-04-27 02:57 -37.06977 174.94246 1939 ft 83 kts 187°
2026-04-27 02:57 -37.07599 174.94253 2011 ft 94 kts 178°
2026-04-27 02:58 -37.08295 174.94338 2059 ft 103 kts 175°
2026-04-27 02:58 -37.09016 174.94421 1972 ft 106 kts 178°
2026-04-27 02:58 -37.09759 174.94469 1895 ft 107 kts 180°
2026-04-27 02:58 -37.10483 174.94575 1887 ft 104 kts 167°
2026-04-27 02:59 -37.11156 174.94934 1859 ft 105 kts 157°
2026-04-27 02:59 -37.11811 174.95346 1808 ft 107 kts 156°
2026-04-27 02:59 -37.12484 174.95741 1784 ft 105 kts 158°
2026-04-27 02:59 -37.13147 174.96135 1764 ft 104 kts 159°
2026-04-27 03:00 -37.13799 174.96533 1745 ft 104 kts 156°
2026-04-27 03:00 -37.14448 174.96950 1743 ft 103 kts 158°
2026-04-27 03:00 -37.15084 174.97343 1735 ft 102 kts 158°
2026-04-27 03:00 -37.15731 174.97700 1732 ft 101 kts 160°
2026-04-27 03:01 -37.16398 174.98055 1701 ft 102 kts 161°
2026-04-27 03:01 -37.17051 174.98408 1701 ft 102 kts 154°
2026-04-27 03:01 -37.17653 174.98868 1710 ft 101 kts 151°
2026-04-27 03:01 -37.18256 174.99326 1722 ft 101 kts 153°
2026-04-27 03:02 -37.18822 174.99864 1856 ft 102 kts 129°
2026-04-27 03:02 -37.19182 175.00635 2007 ft 105 kts 122°
2026-04-27 03:02 -37.19555 175.01451 2040 ft 108 kts 125°
2026-04-27 03:02 -37.19955 175.02258 2090 ft 107 kts 125°
2026-04-27 03:03 -37.20331 175.03090 2084 ft 111 kts 122°
2026-04-27 03:03 -37.20865 175.04927 2120 ft 113 kts 108°
2026-04-27 03:03 -37.21046 175.05888 2150 ft 113 kts 105°
2026-04-27 03:04 -37.21209 175.06859 2157 ft 114 kts 106°
2026-04-27 03:04 -37.21413 175.07823 2177 ft 112 kts 110°
2026-04-27 03:04 -37.21589 175.08780 2168 ft 115 kts 102°
2026-04-27 03:04 -37.21670 175.09781 2165 ft 113 kts 97°
2026-04-27 03:05 -37.21713 175.10767 2076 ft 118 kts 96°
2026-04-27 03:05 -37.21748 175.11793 2035 ft 115 kts 96°
2026-04-27 03:05 -37.21780 175.12782 2024 ft 113 kts 95°
2026-04-27 03:05 -37.21809 175.13785 1970 ft 114 kts 96°
2026-04-27 03:06 -37.21861 175.14761 1963 ft 111 kts 97°
2026-04-27 03:06 -37.21883 175.15553 2038 ft 68 kts 95°
2026-04-27 03:06 -37.21865 175.16043 2064 ft 56 kts 97°
2026-04-27 03:06 -37.21862 175.16516 2074 ft 53 kts 99°
2026-04-27 03:07 -37.21880 175.17000 2028 ft 64 kts 107°
2026-04-27 03:07 -37.21886 175.17747 1921 ft 105 kts 91°
2026-04-27 03:07 -37.21839 175.18697 1882 ft 110 kts 90°
2026-04-27 03:07 -37.21809 175.19653 1871 ft 108 kts 92°
2026-04-27 03:08 -37.21791 175.20583 1868 ft 106 kts 92°
2026-04-27 03:08 -37.21757 175.21501 1860 ft 106 kts 90°
2026-04-27 03:08 -37.21717 175.22441 1849 ft 106 kts 91°
2026-04-27 03:08 -37.21677 175.23360 1833 ft 106 kts 90°
2026-04-27 03:09 -37.21641 175.24283 1821 ft 106 kts 92°
2026-04-27 03:09 -37.21628 175.25212 1796 ft 107 kts 92°
2026-04-27 03:09 -37.21599 175.26161 1774 ft 108 kts 90°
2026-04-27 03:09 -37.21556 175.27095 1788 ft 105 kts 90°
2026-04-27 03:10 -37.21537 175.28018 1795 ft 105 kts 93°
2026-04-27 03:10 -37.21543 175.28917 1853 ft 100 kts 95°
2026-04-27 03:10 -37.21566 175.29784 1867 ft 100 kts 96°
2026-04-27 03:10 -37.21619 175.30653 1883 ft 100 kts 97°
2026-04-27 03:11 -37.21644 175.31531 1894 ft 100 kts 95°
2026-04-27 03:11 -37.21652 175.32426 1858 ft 104 kts 94°
2026-04-27 03:11 -37.21696 175.33325 1852 ft 104 kts 100°
2026-04-27 03:11 -37.21780 175.34236 1840 ft 104 kts 100°
2026-04-27 03:12 -37.21876 175.35126 1842 ft 103 kts 103°
2026-04-27 03:12 -37.21989 175.36034 1818 ft 105 kts 102°
2026-04-27 03:12 -37.22100 175.36931 1830 ft 103 kts 103°
2026-04-27 03:12 -37.22168 175.37834 1804 ft 105 kts 97°
2026-04-27 03:13 -37.22176 175.38748 1810 ft 104 kts 92°
2026-04-27 03:13 -37.22114 175.39665 1798 ft 106 kts 86°
2026-04-27 03:13 -37.21972 175.40579 1792 ft 106 kts 79°
2026-04-27 03:13 -37.21762 175.41447 1807 ft 104 kts 76°
2026-04-27 03:14 -37.21538 175.42319 1785 ft 106 kts 75°
2026-04-27 03:14 -37.21337 175.43221 1771 ft 106 kts 80°
2026-04-27 03:14 -37.21188 175.44106 1780 ft 104 kts 83°
2026-04-27 03:14 -37.21066 175.45015 1760 ft 105 kts 86°
2026-04-27 03:15 -37.20995 175.45935 1756 ft 105 kts 87°
2026-04-27 03:15 -37.20918 175.46840 1754 ft 104 kts 89°
2026-04-27 03:15 -37.20861 175.47745 1749 ft 104 kts 90°
2026-04-27 03:15 -37.20809 175.48654 1725 ft 105 kts 88°
2026-04-27 03:16 -37.20740 175.49570 1735 ft 103 kts 89°
2026-04-27 03:16 -37.20655 175.50461 1726 ft 102 kts 84°
2026-04-27 03:16 -37.20473 175.51314 1581 ft 98 kts 76°
2026-04-27 03:16 -37.20195 175.52077 1384 ft 94 kts 63°
2026-04-27 03:17 -37.19864 175.52754 1203 ft 90 kts 62°
2026-04-27 03:17 -37.19544 175.53432 1041 ft 94 kts 63°
2026-04-27 03:17 -37.19223 175.54156 978 ft 93 kts 63°
2026-04-27 03:17 -37.18905 175.54778 926 ft 74 kts 60°
2026-04-27 03:18 -37.18643 175.55269 823 ft 67 kts 61°
2026-04-27 03:18 -37.18359 175.55693 652 ft 64 kts 30°
2026-04-27 03:18 -37.17922 175.55669 473 ft 62 kts 350°
2026-04-27 03:18 -37.17500 175.55505 382 ft 63 kts 342°
2026-04-27 03:19 -37.17092 175.55312 269 ft 61 kts 343°
2026-04-27 03:19 -37.16688 175.55136 112 ft 63 kts 344°
2026-04-27 03:19 -37.16311 175.54950 22 ft 45 kts 341°
2026-04-27 03:19 -37.15977 175.54791 47 ft 68 kts 339°
2026-04-27 03:20 -37.15495 175.54526 182 ft 83 kts 345°
2026-04-27 03:20 -37.15029 175.54303 490 ft 69 kts 341°
2026-04-27 03:20 -37.14525 175.54045 650 ft 83 kts 323°
2026-04-27 03:20 -37.14436 175.53323 809 ft 93 kts 253°
2026-04-27 03:21 -37.14858 175.52759 867 ft 103 kts 176°
2026-04-27 03:21 -37.15585 175.52881 906 ft 106 kts 171°
2026-04-27 03:21 -37.16299 175.53061 947 ft 100 kts 164°
2026-04-27 03:21 -37.16973 175.53276 991 ft 98 kts 164°
2026-04-27 03:22 -37.17626 175.53481 1035 ft 98 kts 164°
2026-04-27 03:22 -37.18257 175.53696 1033 ft 86 kts 151°
2026-04-27 03:22 -37.18473 175.54263 931 ft 70 kts 76°
2026-04-27 03:22 -37.18297 175.54829 801 ft 71 kts 70°
2026-04-27 03:23 -37.18095 175.55385 695 ft 62 kts 64°
2026-04-27 03:23 -37.17765 175.55714 471 ft 70 kts 348°
2026-04-27 03:23 -37.17342 175.55440 335 ft 60 kts 342°
2026-04-27 03:23 -37.16960 175.55254 226 ft 59 kts 346°
2026-04-27 03:24 -37.16568 175.55072 48 ft 59 kts 344°
2026-04-27 03:24 -37.16257 175.54929 21 ft 38 kts 344°
2026-04-27 03:24 -37.15873 175.54736 96 ft 71 kts 339°
2026-04-27 03:24 -37.15394 175.54460 290 ft 79 kts 336°
2026-04-27 03:25 -37.14878 175.54160 480 ft 85 kts 336°
2026-04-27 03:25 -37.14477 175.53651 707 ft 87 kts 273°
2026-04-27 03:25 -37.14647 175.52946 833 ft 96 kts 200°
2026-04-27 03:25 -37.15340 175.53069 892 ft 106 kts 166°
2026-04-27 03:26 -37.16060 175.53256 975 ft 107 kts 166°
2026-04-27 03:26 -37.16795 175.53462 1048 ft 106 kts 164°
2026-04-27 03:26 -37.17527 175.53662 1088 ft 108 kts 166°
2026-04-27 03:26 -37.18186 175.53833 1127 ft 80 kts 156°
2026-04-27 03:27 -37.18306 175.54350 976 ft 70 kts 71°
2026-04-27 03:27 -37.18084 175.54929 784 ft 74 kts 70°
2026-04-27 03:27 -37.17858 175.55496 565 ft 77 kts 60°
2026-04-27 03:27 -37.17442 175.55505 421 ft 62 kts 338°
2026-04-27 03:28 -37.17046 175.55296 242 ft 61 kts 346°
2026-04-27 03:28 -37.16648 175.55118 94 ft 62 kts 341°
2026-04-27 03:28 -37.16283 175.54936 22 ft 44 kts 342°
2026-04-27 03:28 -37.15982 175.54808 29 ft 64 kts 336°
2026-04-27 03:29 -37.15522 175.54535 190 ft 77 kts 340°
2026-04-27 03:29 -37.15025 175.54265 410 ft 78 kts 338°
2026-04-27 03:29 -37.14547 175.53859 577 ft 91 kts 298°
2026-04-27 03:29 -37.14565 175.53087 794 ft 93 kts 257°
2026-04-27 03:30 -37.15033 175.52653 909 ft 100 kts 168°
2026-04-27 03:30 -37.15728 175.52847 977 ft 107 kts 167°
2026-04-27 03:30 -37.16465 175.53046 1021 ft 105 kts 165°
2026-04-27 03:30 -37.17184 175.53265 1043 ft 107 kts 162°
2026-04-27 03:31 -37.17874 175.53511 1175 ft 99 kts 161°
2026-04-27 03:31 -37.18543 175.53752 1249 ft 99 kts 160°
2026-04-27 03:31 -37.19092 175.54102 1185 ft 79 kts 127°
2026-04-27 03:31 -37.19134 175.54730 994 ft 74 kts 69°
2026-04-27 03:32 -37.18882 175.55246 874 ft 65 kts 60°
2026-04-27 03:32 -37.18587 175.55702 735 ft 69 kts 42°
2026-04-27 03:32 -37.18149 175.55778 568 ft 63 kts 354°
2026-04-27 03:32 -37.17742 175.55602 457 ft 60 kts 345°
2026-04-27 03:33 -37.17345 175.55429 340 ft 59 kts 345°
2026-04-27 03:33 -37.16961 175.55257 215 ft 58 kts 343°
2026-04-27 03:33 -37.16577 175.55078 64 ft 61 kts 343°
2026-04-27 03:33 -37.16238 175.54918 21 ft 40 kts 341°
2026-04-27 03:34 -37.16075 175.54848 22 ft 13 kts 13°
2026-04-27 03:34 -37.16008 175.54895 24 ft 12 kts 35°
2026-04-27 03:34 -37.15924 175.54968 28 ft 15 kts 34°
2026-04-27 03:34 -37.15843 175.55046 31 ft 11 kts 39°
2026-04-27 03:35 -37.15792 175.55100 31 ft 9 kts 47°
2026-04-27 03:35 -37.15745 175.55129 31 ft 3 kts 340°
2026-04-27 03:35 -37.15742 175.55127 31 ft 0 kts 336°
2026-04-27 03:38 -37.15748 175.55124 31 ft 0 kts 336°
2026-04-27 03:53 -37.15747 175.55122 31 ft 1 kts 326°
2026-04-27 03:53 -37.15757 175.55103 31 ft 5 kts 185°
2026-04-27 03:53 -37.15806 175.55078 31 ft 10 kts 216°
2026-04-27 03:53 -37.15872 175.55014 29 ft 13 kts 217°
2026-04-27 03:54 -37.15951 175.54942 26 ft 14 kts 214°
2026-04-27 03:54 -37.16032 175.54869 23 ft 12 kts 211°
2026-04-27 03:54 -37.16117 175.54862 21 ft 13 kts 162°
2026-04-27 03:54 -37.16213 175.54906 21 ft 15 kts 158°
2026-04-27 03:55 -37.16314 175.54953 21 ft 15 kts 158°
2026-04-27 03:55 -37.16405 175.54997 22 ft 11 kts 156°
2026-04-27 03:55 -37.16462 175.55032 23 ft 4 kts 230°
2026-04-27 03:55 -37.16454 175.55020 23 ft 0 kts 340°
2026-04-27 03:56 -37.16304 175.54950 21 ft 52 kts 341°
2026-04-27 03:56 -37.15876 175.54707 134 ft 77 kts 338°
2026-04-27 03:56 -37.15393 175.54402 362 ft 79 kts 336°
2026-04-27 03:57 -37.14941 175.53983 584 ft 83 kts 316°
2026-04-27 03:57 -37.14590 175.53383 795 ft 86 kts 306°
2026-04-27 03:57 -37.14289 175.52721 989 ft 91 kts 297°
2026-04-27 03:57 -37.13951 175.51999 1120 ft 101 kts 300°
2026-04-27 03:58 -37.13541 175.51215 1192 ft 113 kts 303°
2026-04-27 03:58 -37.13060 175.50383 1268 ft 118 kts 306°
2026-04-27 03:58 -37.12561 175.49582 1388 ft 117 kts 308°
2026-04-27 03:58 -37.12047 175.48798 1474 ft 117 kts 309°
2026-04-27 03:59 -37.11520 175.48022 1478 ft 116 kts 310°
2026-04-27 03:59 -37.11017 175.47244 1517 ft 112 kts 308°
2026-04-27 03:59 -37.10540 175.46460 1504 ft 115 kts 306°
2026-04-27 03:59 -37.10029 175.45682 1494 ft 115 kts 311°
2026-04-27 04:00 -37.09478 175.44959 1504 ft 115 kts 313°
2026-04-27 04:00 -37.08907 175.44226 1502 ft 115 kts 314°
2026-04-27 04:00 -37.08296 175.43581 1500 ft 115 kts 319°
2026-04-27 04:00 -37.07706 175.42906 1514 ft 113 kts 313°
2026-04-27 04:01 -37.07163 175.42183 1512 ft 113 kts 310°
2026-04-27 04:01 -37.06630 175.41457 1505 ft 114 kts 311°
2026-04-27 04:01 -37.06067 175.40753 1515 ft 113 kts 315°
2026-04-27 04:01 -37.05483 175.40070 1514 ft 113 kts 313°
2026-04-27 04:02 -37.04984 175.39317 1509 ft 113 kts 304°
2026-04-27 04:02 -37.04544 175.38484 1510 ft 113 kts 301°
2026-04-27 04:02 -37.04100 175.37668 1507 ft 114 kts 302°
2026-04-27 04:02 -37.03645 175.36855 1504 ft 114 kts 304°
2026-04-27 04:03 -37.03166 175.36060 1496 ft 115 kts 306°
2026-04-27 04:03 -37.02646 175.35286 1501 ft 114 kts 311°
2026-04-27 04:03 -37.02104 175.34576 1516 ft 113 kts 312°
2026-04-27 04:03 -37.01539 175.33878 1525 ft 113 kts 314°
2026-04-27 04:04 -37.00984 175.33191 1521 ft 113 kts 314°
2026-04-27 04:04 -37.00407 175.32504 1519 ft 113 kts 313°
2026-04-27 04:04 -36.99884 175.31781 1526 ft 112 kts 306°
2026-04-27 04:04 -36.99456 175.30959 1510 ft 113 kts 296°
2026-04-27 04:05 -36.99120 175.30078 1518 ft 112 kts 291°
2026-04-27 04:05 -36.98799 175.29193 1516 ft 112 kts 292°
2026-04-27 04:05 -36.98450 175.28308 1522 ft 112 kts 293°
2026-04-27 04:05 -36.98135 175.27412 1520 ft 112 kts 290°
2026-04-27 04:06 -36.97819 175.26508 1533 ft 115 kts 291°
2026-04-27 04:06 -36.97519 175.25589 1684 ft 113 kts 288°
2026-04-27 04:06 -36.97247 175.24666 1797 ft 114 kts 288°
2026-04-27 04:07 -36.96666 175.22783 2038 ft 114 kts 285°
2026-04-27 04:07 -36.96433 175.21817 2057 ft 116 kts 281°
2026-04-27 04:07 -36.96267 175.20825 2052 ft 115 kts 277°
2026-04-27 04:07 -36.96159 175.19833 2035 ft 115 kts 271°
2026-04-27 04:08 -36.96168 175.18851 2078 ft 111 kts 263°
2026-04-27 04:08 -36.96216 175.17877 2082 ft 112 kts 265°
2026-04-27 04:08 -36.96197 175.16893 2028 ft 116 kts 265°
2026-04-27 04:08 -36.96344 175.15912 1984 ft 115 kts 253°
2026-04-27 04:09 -36.96526 175.14934 1958 ft 114 kts 258°
2026-04-27 04:09 -36.96605 175.13943 1928 ft 115 kts 264°
2026-04-27 04:09 -36.96703 175.12975 1914 ft 112 kts 256°
2026-04-27 04:09 -36.96862 175.12010 1868 ft 112 kts 258°
2026-04-27 04:10 -36.97053 175.11072 1684 ft 114 kts 251°
2026-04-27 04:10 -36.97253 175.10110 1518 ft 113 kts 253°
2026-04-27 04:10 -36.97401 175.09139 1359 ft 112 kts 258°
2026-04-27 04:10 -36.97583 175.08191 1202 ft 112 kts 252°
2026-04-27 04:11 -36.97809 175.07260 1106 ft 110 kts 253°
2026-04-27 04:11 -36.97999 175.06354 1050 ft 107 kts 251°
2026-04-27 04:11 -36.98239 175.05490 1028 ft 103 kts 250°
2026-04-27 04:11 -36.98470 175.04648 1016 ft 100 kts 247°
2026-04-27 04:12 -36.98745 175.03834 995 ft 98 kts 243°
2026-04-27 04:12 -36.99058 175.03073 991 ft 97 kts 242°
2026-04-27 04:12 -36.99359 175.02303 989 ft 100 kts 239°
2026-04-27 04:12 -36.99791 175.01599 1070 ft 104 kts 229°
2026-04-27 04:13 -37.00261 175.00880 1050 ft 108 kts 230°
2026-04-27 04:13 -37.00720 175.00188 923 ft 93 kts 225°
2026-04-27 04:13 -37.01164 174.99710 786 ft 75 kts 222°
2026-04-27 04:13 -37.01512 174.99300 668 ft 63 kts 224°
2026-04-27 04:14 -37.01804 174.98936 538 ft 57 kts 225°
2026-04-27 04:14 -37.02084 174.98587 398 ft 56 kts 225°
2026-04-27 04:14 -37.02350 174.98239 299 ft 56 kts 225°
2026-04-27 04:14 -37.02625 174.97890 206 ft 55 kts 225°
2026-04-27 04:15 -37.02880 174.97557 110 ft 46 kts 226°
2026-04-27 04:15 -37.03048 174.97342 109 ft 24 kts 225°
2026-04-27 04:15 -37.03134 174.97234 109 ft 12 kts 224°
2026-04-27 04:15 -37.03178 174.97185 109 ft 4 kts 220°
2026-04-27 04:16 -37.03204 174.97168 109 ft 4 kts 187°
2026-04-27 04:16 -37.03227 174.97179 109 ft 2 kts 137°
2026-04-27 04:16 -37.03229 174.97180 109 ft 0 kts 145°
2026-04-27 04:18 -37.03236 174.97186 109 ft 5 kts 144°
2026-04-27 04:18 -37.03292 174.97238 109 ft 11 kts 140°
2026-04-27 04:18 -37.03327 174.97240 109 ft 5 kts 224°
2026-04-27 04:19 -37.03355 174.97205 109 ft 6 kts 224°
2026-04-27 04:19 -37.03386 174.97166 109 ft 3 kts 223°
2026-04-27 04:19 -37.03406 174.97141 109 ft 4 kts 224°
2026-04-27 04:19 -37.03431 174.97108 109 ft 5 kts 226°
2026-04-27 04:20 -37.03460 174.97073 109 ft 6 kts 220°
2026-04-27 04:20 -37.03491 174.97032 109 ft 6 kts 230°
2026-04-27 04:20 -37.03525 174.96988 109 ft 6 kts 225°
2026-04-27 04:20 -37.03560 174.96947 109 ft 7 kts 205°
2026-04-27 04:21 -37.03596 174.96976 109 ft 7 kts 136°
2026-04-27 04:21 -37.03627 174.97008 109 ft 2 kts 182°
2026-04-27 04:21 -37.03637 174.96997 109 ft 1 kts 222°
2026-04-27 04:21 -37.03638 174.96995 109 ft 0 kts 223°